Thomasboro, Illinois
Current Conditions -  °F | °C
As of 7:30 PM on Friday 24 Oct 2014 (Local Time) from KTIP Reporting Station
Clear Clear  
Wind Chill: 57°   Ceiling: Unl
Heat Index: 57°   Visibility: 7mi
Dew Point: 54°   Wind: 7mph
Humidity: 89%   Direction: 220°SW
Pressure: 30"   Gusts: NA
Location:  40.24°N, 88.18°W
Report Text: KTIP 250030Z AUTO 22006KT 7SM CLR 14/12 A3000 RMK AO2 T01370120
Loading
Personal Weather Stations






























Interactive Weather Map
Tropical Storm Tracking
New forecast layout! Learn more

10-Day Weather Forecast

Advertisements
Track Severe Weather on mobile